Hastings Natural History Reservation, California Weather observations

Data are for 10 minute period ending at time listed.
 Day   Time   Solar   Ave.   Ave.  Ave.  Vector  Max.   Baro.   Total    
  of    of     Rad.   Air    Rel.  Wind   Wind   Wind  Press.  Precip.   
Year   Day            Temp.  Hum.  Speed  Dir.   Gust                    
2015   (PST)  Kw/m2    F      %     mph   deg.    mph    mb.     in.     
-------------------------------------------------------------------------
 214    1:10   0.00   54.9    52    0.1    60     0.9   951.8    0.00 
 214    1:20   0.00   54.8    51    0.5    48     1.4   951.7    0.00 
 214    1:30   0.00   54.8    52    1.0    54     1.8   951.6    0.00 
 214    1:40   0.00   54.7    52    0.6    57     1.2   951.6    0.00 
 214    1:50   0.00   54.5    53    0.4    57     1.2   951.6    0.00 
 214    2:00   0.00   54.4    54    0.1    56     0.6   951.6    0.00 
 214    2:10   0.00   54.1    54    0.0    57     0.5   951.7    0.00 
 214    2:20   0.00   53.9    55    0.8    63     2.0   951.8    0.00 
 214    2:30   0.00   54.2    56    0.8    66     1.5   951.7    0.00 
 214    2:40   0.00   54.3    57    0.8    67     1.5   951.6    0.00 
 214    2:50   0.00   54.0    59    0.4    43     1.4   951.6    0.00 
 214    3:00   0.00   53.7    63    0.4    57     1.5   951.6    0.00 
 214    3:10   0.00   53.2    63    0.9    58     1.6   951.6    0.00 
 214    3:20   0.00   53.0    64    0.3    42     1.2   951.6    0.00 
 214    3:30   0.00   52.7    65    0.2    57     0.8   951.6    0.00 
 214    3:40   0.00   52.4    65    0.5    55     1.2   951.5    0.00 
 214    3:50   0.00   52.1    65    0.2    55     0.9   951.4    0.00 
 214    4:00   0.00   51.9    64    0.0    53     0.4   951.4    0.00 
 214    4:10   0.00   51.7    65    0.0     0     0.0   951.4    0.00 
 214    4:20   0.00   51.4    65    0.6    58     1.9   951.6    0.00 
 214    4:30   0.00   51.2    65    0.1    79     0.7   951.7    0.00 
 214    4:40   0.00   51.3    68    0.1   176     0.6   951.7    0.00 
 214    4:50   0.00   51.0    69    0.4    41     1.1   951.7    0.00 
 214    5:00   0.00   50.6    71    0.4    50     1.2   951.7    0.00 
 214    5:10   0.00   50.3    72    1.2    42     1.9   951.6    0.00 
 214    5:20   0.00   50.0    73    0.5    41     1.4   951.6    0.00 
 214    5:30   0.00   49.9    74    0.0    54     0.2   951.4    0.00 
 214    5:40   0.00   49.7    75    0.1    52     0.7   951.4    0.00 
 214    5:50   0.00   49.5    75    0.3    65     0.9   951.4    0.00 
 214    6:00   0.00   49.5    75    0.0     0     0.0   951.5    0.00 
 214    6:10   0.00   49.4    75    0.0    58     0.5   951.5    0.00 
 214    6:20   0.00   49.2    76    0.5    51     1.2   951.6    0.00 
 214    6:30   0.00   49.1    74    1.3    45     1.9   951.7    0.00 
 214    6:40   0.00   49.2    73    0.4    39     1.5   951.7    0.00 
 214    6:50   0.01   49.5    74    0.0     0     0.0   951.6    0.00 
 214    7:00   0.01   49.8    73    0.0     0     0.0   951.6    0.00 
 214    7:10   0.01   50.1    72    0.0    67     0.6   951.5    0.00 
 214    7:20   0.03   50.6    72    1.0    67     1.5   951.6    0.00 
 214    7:30   0.03   51.4    72    0.4    63     1.5   951.7    0.00 
 214    7:40   0.03   52.3    71    0.1    82     1.0   951.7    0.00 
 214    7:50   0.03   53.2    68    0.2    84     1.2   951.8    0.00 
 214    8:00   0.08   54.5    66    0.0    61     0.7   951.8    0.00 
 214    8:10   0.23   57.0    61    2.0   234     4.9   951.9    0.00 
 214    8:20   0.26   59.7    60    2.0   244     3.4   952.0    0.00 
 214    8:30   0.28   60.2    62    2.4   251     4.3   952.0    0.00 
 214    8:40   0.33   60.8    63    2.2   252     6.2   952.2    0.00 
 214    8:50   0.36   60.8    64    3.4   250     6.3   952.1    0.00 
 214    9:00   0.39   62.8    60    1.0   283     3.7   952.1    0.00 
 214    9:10   0.42   64.2    58    2.0   259     5.3   952.2    0.00 
 214    9:20   0.42   63.0    61    3.2   255     6.5   952.2    0.00 
 214    9:30   0.46   63.9    60    3.1   252     7.0   952.1    0.00 
 214    9:40   0.46   64.0    58    3.5   252     7.4   952.1    0.00 
 214    9:50   0.49   65.3    57    2.1   264     4.7   952.1    0.00 
 214   10:00   0.50   65.7    56    2.9   255     6.6   952.0    0.00 
 214   10:10   0.52   66.7    54    2.0   245     5.1   951.9    0.00 
 214   10:20   0.57   67.7    53    2.7   236     5.7   951.7    0.00 
 214   10:30   0.59   68.5    51    2.3   239     6.1   951.6    0.00 
 214   10:40   0.64   71.9    46    1.6   273     7.0   951.6    0.00 
 214   10:50   0.62   71.5    47    2.7   252     8.2   951.6    0.00 
 214   11:00   0.70   72.2    45    2.8   248     7.5   951.6    0.00 
 214   11:10   0.42   72.3    46    3.3   257     6.9   951.7    0.00 
 214   11:20   0.73   71.3    48    4.4   247     8.8   951.8    0.00 
 214   11:30   0.80   74.2    44    1.9   332     5.9   951.7    0.00 
 214   11:40   0.79   75.3    43    2.6   268     7.4   951.8    0.00 
 214   11:50   0.76   74.7    43    3.2   249     8.0   951.8    0.00 
 214   12:00   0.81   76.0    42    3.8   245     8.5   951.8    0.00 
 214   12:10   0.81   76.4    42    2.4   262     7.9   951.8    0.00 
 214   12:20   0.85   78.5    40    2.0   324     7.2   951.8    0.00 
 214   12:30   0.86   78.5    40    2.6   251     7.6   951.7    0.00 
 214   12:40   0.80   78.2    39    3.0   250    10.9   951.6    0.00 
 214   12:50   0.79   78.6    38    4.2   249    12.5   951.6    0.00 
 214   13:00   0.80   79.5    36    3.6   252     9.5   951.6    0.00 
 214   13:10   0.88   80.5    36    3.7   273    10.3   951.5    0.00 
 214   13:20   0.89   81.1    36    3.7   282     9.3   951.5    0.00 
 214   13:30   0.89   82.2    34    2.5   340     8.9   951.4    0.00 
 214   13:40   0.88   82.7    33    3.4   256     9.3   951.3    0.00 
 214   13:50   0.90   83.7    31    3.0   312     9.9   951.4    0.00 
 214   14:00   0.88   82.9    33    4.5   255    12.3   951.4    0.00 
 214   14:10   0.87   82.5    35    3.9   256    10.5   951.3    0.00 
 214   14:20   0.86   82.1    36    3.9   258     9.1   951.3    0.00 
 214   14:30   0.68   82.0    36    3.2   263    11.9   951.2    0.00 
 214   14:40   0.63   81.4    38    3.7   256     8.5   951.2    0.00 
 214   14:50   0.59   80.7    38    4.0   258     9.3   951.2    0.00 
 214   15:00   0.82   81.6    37    2.8   321     8.4   951.3    0.00 
 214   15:10   0.81   83.1    35    3.3   313     8.3   951.3    0.00 
 214   15:20   0.80   81.6    36    4.0   267    11.8   951.2    0.00 
 214   15:30   0.71   80.7    36    4.5   255     9.6   951.1    0.00 
 214   15:40   0.75   80.6    35    4.3   258    11.6   951.0    0.00 
 214   15:50   0.51   78.8    38    5.7   248    11.2   951.0    0.00 
 214   16:00   0.53   78.0    38    3.8   258     9.6   951.1    0.00 
 214   16:10   0.65   77.8    39    5.2   258    13.0   951.0    0.00 
 214   16:20   0.52   78.3    38    3.9   268    11.0   950.9    0.00 
 214   16:30   0.41   77.6    38    3.4   290     9.6   950.8    0.00 
 214   16:40   0.38   77.0    39    2.4   276     9.3   950.7    0.00 
 214   16:50   0.44   76.4    40    4.7   256     9.2   950.6    0.00 
 214   17:00   0.48   76.1    40    3.2   293    11.5   950.6    0.00 
 214   17:10   0.46   76.7    38    3.9   268    10.0   950.6    0.00 
 214   17:20   0.47   76.3    39    3.1   287     8.5   950.7    0.00 
 214   17:30   0.49   77.3    37    2.4   257     8.0   950.5    0.00 
 214   17:40   0.46   76.5    35    2.8   313     9.3   950.6    0.00 
 214   17:50   0.40   76.1    38    3.8   255     9.4   950.5    0.00 
 214   18:00   0.36   75.9    39    3.9   285     8.6   950.5    0.00 
 214   18:10   0.30   74.9    41    3.9   257     9.1   950.4    0.00 
 214   18:20   0.27   75.4    40    1.9   341     6.9   950.4    0.00 
 214   18:30   0.26   74.6    41    2.6   268     8.1   950.3    0.00 
 214   18:40   0.18   74.6    41    2.7   263     6.9   950.2    0.00 
 214   18:50   0.12   73.5    41    1.7   342     8.3   950.1    0.00 
 214   19:00   0.10   72.8    42    2.6   260     7.4   949.9    0.00 
 214   19:10   0.03   72.2    43    2.5   263     7.7   949.8    0.00 
 214   19:20   0.03   71.0    47    3.2   249     6.1   949.8    0.00 
 214   19:30   0.02   70.3    48    2.7   261     6.9   949.8    0.00 
 214   19:40   0.01   69.4    50    3.0   253     6.1   949.8    0.00 
 214   19:50   0.01   68.1    54    2.9   246     6.5   949.8    0.00 
 214   20:00   0.01   66.8    57    2.8   251     5.3   949.9    0.00 
 214   20:10   0.00   65.5    60    1.6   256     3.8   950.0    0.00 
 214   20:20   0.00   64.3    63    2.4   244     4.6   950.1    0.00 
 214   20:30   0.00   63.2    66    2.3   239     5.7   950.1    0.00 
 214   20:40   0.00   62.4    68    2.1   232     4.0   950.2    0.00 
 214   20:50   0.00   61.7    70    2.4   244     4.1   950.3    0.00 
 214   21:00   0.00   60.9    72    2.3   248     5.5   950.4    0.00 
 214   21:10   0.00   60.2    74    1.1   254     2.5   950.6    0.00 
 214   21:20   0.00   59.7    75    0.9   236     2.3   950.6    0.00 
 214   21:30   0.00   59.3    76    0.2   302     1.8   950.7    0.00 
 214   21:40   0.00   58.9    77    0.7   245     1.7   950.8    0.00 
 214   21:50   0.00   58.3    78    0.1   244     0.9   951.0    0.00 
 214   22:00   0.00   57.8    79    0.0   213     0.6   951.0    0.00 
 214   22:10   0.00   57.3    80    0.3    48     1.6   951.2    0.00 
 214   22:20   0.00   56.9    82    0.4   328     1.5   951.3    0.00 
 214   22:30   0.00   56.7    82    0.2   250     1.4   951.4    0.00 
 214   22:40   0.00   56.3    82    0.0    27     0.8   951.4    0.00 
 214   22:50   0.00   55.6    82    0.7    47     1.4   951.4    0.00 
 214   23:00   0.00   54.7    81    1.0    41     1.5   951.4    0.00 
 214   23:10   0.00   54.2    82    0.6    42     1.4   951.5    0.00 
 214   23:20   0.00   53.8    82    1.3    44     2.0   951.5    0.00 
 214   23:30   0.00   53.6    82    0.2    32     1.0   951.6    0.00 
 214   23:40   0.00   53.3    82    0.5    42     1.5   951.6    0.00 
 214   23:50   0.00   53.0    82    0.8    46     1.2   951.6    0.00 
 215    0:00   0.00   52.7    83    0.8    44     1.1   951.6    0.00 
 215    0:10   0.00   52.4    82    1.0    45     1.4   951.7    0.00 
 215    0:20   0.00   52.3    83    0.8    46     1.4   951.6    0.00 
 215    0:30   0.00   52.3    83    0.4    34     1.8   951.6    0.00 
 215    0:40   0.00   52.1    82    0.4    42     1.6   951.6    0.00 
 215    0:50   0.00   52.1    83    0.7    44     1.8   951.4    0.00 
 215    1:00   0.00   52.0    83    0.1    83     0.9   951.4    0.00 

Return to Hastings Natural History Reservation graphs page.


Western Regional Climate Center,wrcc@dri.edu